Time,TemperatureF,DewpointF,PressureIn,WindDirection,WindDirectionDegrees,WindSpeedMPH,WindSpeedGustMPH,Humidity,HourlyPrecipIn,Conditions,Clouds,dailyrainin,SoftwareType,DateUTC
2013-08-04 00:12:00,76.7,74.0,30.05,NNE,23,0.0,0.0,92,0.00,,,0.00,weatherlink.com 1.10,2013-08-04 05:12:00,
2013-08-04 00:27:00,76.7,74.0,30.06,NNE,23,0.0,0.0,92,0.00,,,0.00,weatherlink.com 1.10,2013-08-04 05:27:00,
2013-08-04 00:42:00,76.7,74.0,30.05,NNE,23,0.0,0.0,92,0.00,,,0.00,weatherlink.com 1.10,2013-08-04 05:42:00,
2013-08-04 00:57:00,76.5,74.0,30.06,NNE,23,0.0,0.0,93,0.00,,,0.00,weatherlink.com 1.10,2013-08-04 05:57:00,
2013-08-04 01:12:00,76.4,74.0,30.05,NNE,23,0.0,0.0,93,0.00,,,0.00,weatherlink.com 1.10,2013-08-04 06:12:00,
2013-08-04 01:27:00,76.2,74.0,30.05,NNE,23,0.0,1.0,93,0.00,,,0.00,weatherlink.com 1.10,2013-08-04 06:27:00,
2013-08-04 01:41:00,76.2,74.0,30.05,NNE,23,0.0,0.0,93,0.00,,,0.00,weatherlink.com 1.10,2013-08-04 06:41:00,
2013-08-04 01:56:00,76.4,74.0,30.05,NNE,23,0.0,0.0,92,0.00,,,0.00,weatherlink.com 1.10,2013-08-04 06:56:00,
2013-08-04 02:12:00,76.5,74.0,30.04,WSW,256,0.0,0.0,92,0.00,,,0.00,weatherlink.com 1.10,2013-08-04 07:12:00,
2013-08-04 02:27:00,76.6,74.0,30.04,WSW,256,0.0,0.0,92,0.00,,,0.00,weatherlink.com 1.10,2013-08-04 07:27:00,
2013-08-04 02:42:00,76.6,75.0,30.05,WSW,256,0.0,1.0,93,0.00,,,0.00,weatherlink.com 1.10,2013-08-04 07:42:00,
2013-08-04 02:57:00,76.5,74.0,30.05,WSW,256,0.0,1.0,93,0.00,,,0.00,weatherlink.com 1.10,2013-08-04 07:57:00,
2013-08-04 03:12:00,76.5,74.0,30.04,SW,236,0.0,1.0,93,0.00,,,0.00,weatherlink.com 1.10,2013-08-04 08:12:00,
2013-08-04 03:27:00,76.4,74.0,30.04,West,269,0.0,1.0,93,0.00,,,0.00,weatherlink.com 1.10,2013-08-04 08:27:00,
2013-08-04 03:42:00,76.3,74.0,30.04,West,263,0.0,2.0,93,0.00,,,0.00,weatherlink.com 1.10,2013-08-04 08:42:00,
2013-08-04 03:57:00,76.2,74.0,30.05,WSW,245,0.0,1.0,93,0.00,,,0.00,weatherlink.com 1.10,2013-08-04 08:57:00,
2013-08-04 04:12:00,76.1,74.0,30.04,WSW,245,0.0,1.0,93,0.00,,,0.00,weatherlink.com 1.10,2013-08-04 09:12:00,
2013-08-04 04:27:00,75.9,74.0,30.05,West,260,0.0,1.0,94,0.00,,,0.00,weatherlink.com 1.10,2013-08-04 09:27:00,
2013-08-04 04:42:00,75.7,74.0,30.04,WSW,253,0.0,1.0,94,0.00,,,0.00,weatherlink.com 1.10,2013-08-04 09:42:00,
2013-08-04 04:57:00,75.6,74.0,30.04,WSW,253,0.0,1.0,94,0.00,,,0.00,weatherlink.com 1.10,2013-08-04 09:57:00,
2013-08-04 05:12:00,75.4,74.0,30.04,West,271,0.0,1.0,94,0.00,,,0.00,weatherlink.com 1.10,2013-08-04 10:12:00,
2013-08-04 05:27:00,75.2,73.0,30.05,West,271,0.0,1.0,94,0.00,,,0.00,weatherlink.com 1.10,2013-08-04 10:27:00,
2013-08-04 05:42:00,75.1,74.0,30.05,West,271,0.0,1.0,95,0.00,,,0.00,weatherlink.com 1.10,2013-08-04 10:42:00,
2013-08-04 05:57:00,75.0,74.0,30.05,West,271,0.0,1.0,95,0.00,,,0.00,weatherlink.com 1.10,2013-08-04 10:57:00,
2013-08-04 06:12:00,74.9,73.0,30.06,West,271,0.0,0.0,95,0.00,,,0.00,weatherlink.com 1.10,2013-08-04 11:12:00,
2013-08-04 06:27:00,74.9,73.0,30.06,West,271,0.0,1.0,95,0.00,,,0.00,weatherlink.com 1.10,2013-08-04 11:27:00,
2013-08-04 06:42:00,74.8,73.0,30.07,West,271,0.0,0.0,95,0.00,,,0.00,weatherlink.com 1.10,2013-08-04 11:42:00,
2013-08-04 06:57:00,75.0,74.0,30.08,West,271,0.0,0.0,96,0.00,,,0.00,weatherlink.com 1.10,2013-08-04 11:57:00,
2013-08-04 07:12:00,75.5,74.0,30.09,West,271,0.0,1.0,96,0.00,,,0.00,weatherlink.com 1.10,2013-08-04 12:12:00,
2013-08-04 07:27:00,76.2,75.0,30.09,North,357,0.0,1.0,95,0.00,,,0.00,weatherlink.com 1.10,2013-08-04 12:27:00,
2013-08-04 07:42:00,77.1,75.0,30.09,NNW,346,1.0,2.0,94,0.00,,,0.00,weatherlink.com 1.10,2013-08-04 12:42:00,
2013-08-04 07:57:00,78.0,76.0,30.09,SW,236,1.0,2.0,92,0.00,,,0.00,weatherlink.com 1.10,2013-08-04 12:57:00,
2013-08-04 08:12:00,79.0,76.0,30.10,WSW,250,0.0,2.0,91,0.00,,,0.00,weatherlink.com 1.10,2013-08-04 13:12:00,
2013-08-04 08:27:00,79.8,76.0,30.10,North,358,2.0,2.0,89,0.00,,,0.00,weatherlink.com 1.10,2013-08-04 13:27:00,
2013-08-04 08:42:00,80.6,77.0,30.10,WNW,295,0.0,2.0,88,0.00,,,0.00,weatherlink.com 1.10,2013-08-04 13:42:00,
2013-08-04 08:57:00,81.4,77.0,30.10,NE,48,0.0,5.0,87,0.00,,,0.00,weatherlink.com 1.10,2013-08-04 13:57:00,
2013-08-04 09:12:00,82.3,77.0,30.10,NNW,342,1.0,3.0,85,0.00,,,0.00,weatherlink.com 1.10,2013-08-04 14:12:00,
2013-08-04 09:28:00,82.9,78.0,30.10,WNW,283,0.0,3.0,84,0.00,,,0.00,weatherlink.com 1.10,2013-08-04 14:28:00,
2013-08-04 09:43:00,84.1,78.0,30.10,WSW,242,0.0,6.0,81,0.00,,,0.00,weatherlink.com 1.10,2013-08-04 14:43:00,
2013-08-04 09:57:00,85.4,79.0,30.10,West,273,1.0,5.0,80,0.00,,,0.00,weatherlink.com 1.10,2013-08-04 14:57:00,
2013-08-04 10:15:00,86.4,78.0,30.10,SW,227,3.0,4.0,76,0.00,,,0.00,weatherlink.com 1.10,2013-08-04 15:15:00,
2013-08-04 10:28:00,87.4,78.0,30.09,South,172,1.0,4.0,74,0.00,,,0.00,weatherlink.com 1.10,2013-08-04 15:28:00,
2013-08-04 10:43:00,87.7,78.0,30.09,WNW,290,1.0,5.0,72,0.00,,,0.00,weatherlink.com 1.10,2013-08-04 15:43:00,
2013-08-04 10:58:00,88.1,78.0,30.09,WSW,249,2.0,4.0,71,0.00,,,0.00,weatherlink.com 1.10,2013-08-04 15:58:00,
2013-08-04 11:13:00,88.8,78.0,30.09,West,276,2.0,5.0,70,0.00,,,0.00,weatherlink.com 1.10,2013-08-04 16:13:00,
2013-08-04 11:28:00,89.2,77.0,30.09,NNW,333,3.0,5.0,67,0.00,,,0.00,weatherlink.com 1.10,2013-08-04 16:28:00,
2013-08-04 11:43:00,89.7,77.0,30.08,West,260,1.0,5.0,66,0.00,,,0.00,weatherlink.com 1.10,2013-08-04 16:43:00,
2013-08-04 11:58:00,90.2,77.0,30.08,West,271,2.0,6.0,65,0.00,,,0.00,weatherlink.com 1.10,2013-08-04 16:58:00,
2013-08-04 12:13:00,91.7,77.0,30.08,SW,230,2.0,5.0,62,0.00,,,0.00,weatherlink.com 1.10,2013-08-04 17:13:00,
2013-08-04 12:28:00,91.3,74.0,30.07,WNW,291,1.0,5.0,57,0.00,,,0.00,weatherlink.com 1.10,2013-08-04 17:28:00,
2013-08-04 12:43:00,92.1,75.0,30.07,West,280,4.0,6.0,57,0.00,,,0.00,weatherlink.com 1.10,2013-08-04 17:43:00,
2013-08-04 12:58:00,93.3,74.0,30.07,WNW,288,0.0,4.0,54,0.00,,,0.00,weatherlink.com 1.10,2013-08-04 17:58:00,
2013-08-04 13:13:00,92.9,75.0,30.06,West,278,1.0,4.0,56,0.00,,,0.00,weatherlink.com 1.10,2013-08-04 18:13:00,
2013-08-04 13:28:00,94.2,75.0,30.05,SSE,156,0.0,5.0,53,0.00,,,0.00,weatherlink.com 1.10,2013-08-04 18:28:00,
2013-08-04 13:43:00,92.7,73.0,30.04,ENE,68,2.0,5.0,53,0.00,,,0.00,weatherlink.com 1.10,2013-08-04 18:43:00,
2013-08-04 13:58:00,92.7,75.0,30.04,SW,231,1.0,4.0,57,0.00,,,0.00,weatherlink.com 1.10,2013-08-04 18:58:00,
2013-08-04 14:13:00,93.1,75.0,30.04,West,276,1.0,7.0,56,0.00,,,0.00,weatherlink.com 1.10,2013-08-04 19:13:00,
2013-08-04 14:28:00,93.7,73.0,30.03,WNW,286,1.0,4.0,52,0.00,,,0.00,weatherlink.com 1.10,2013-08-04 19:28:00,
2013-08-04 14:43:00,93.5,74.0,30.02,NNE,18,2.0,4.0,54,0.00,,,0.00,weatherlink.com 1.10,2013-08-04 19:43:00,
2013-08-04 14:58:00,93.5,73.0,30.02,WNW,294,2.0,9.0,52,0.00,,,0.00,weatherlink.com 1.10,2013-08-04 19:58:00,
2013-08-04 15:13:00,94.9,72.0,30.01,WSW,253,4.0,5.0,47,0.00,,,0.00,weatherlink.com 1.10,2013-08-04 20:13:00,
2013-08-04 15:28:00,95.2,74.0,30.01,SSE,155,2.0,6.0,50,0.00,,,0.00,weatherlink.com 1.10,2013-08-04 20:28:00,
2013-08-04 15:43:00,96.6,73.0,30.00,West,271,1.0,3.0,47,0.00,,,0.00,weatherlink.com 1.10,2013-08-04 20:43:00,
2013-08-04 15:59:00,96.1,73.0,30.00,NE,56,1.0,3.0,48,0.00,,,0.00,weatherlink.com 1.10,2013-08-04 20:59:00,
2013-08-04 16:14:00,96.0,73.0,30.00,West,274,0.0,5.0,47,0.00,,,0.00,weatherlink.com 1.10,2013-08-04 21:14:00,
2013-08-04 16:29:00,95.7,74.0,30.00,NE,49,2.0,3.0,50,0.00,,,0.00,weatherlink.com 1.10,2013-08-04 21:29:00,
2013-08-04 16:44:00,96.9,76.0,30.00,WSW,247,0.0,2.0,51,0.00,,,0.00,weatherlink.com 1.10,2013-08-04 21:44:00,
2013-08-04 16:59:00,95.7,74.0,29.99,North,357,1.0,5.0,49,0.00,,,0.00,weatherlink.com 1.10,2013-08-04 21:59:00,
2013-08-04 17:13:00,96.2,72.0,29.98,North,359,1.0,3.0,46,0.00,,,0.00,weatherlink.com 1.10,2013-08-04 22:13:00,
2013-08-04 17:28:00,96.6,74.0,29.98,South,186,1.0,5.0,48,0.00,,,0.00,weatherlink.com 1.10,2013-08-04 22:28:00,
2013-08-04 17:44:00,95.2,74.0,29.98,West,278,0.0,4.0,50,0.00,,,0.00,weatherlink.com 1.10,2013-08-04 22:44:00,
2013-08-04 17:59:00,94.9,73.0,29.98,West,274,2.0,3.0,50,0.00,,,0.00,weatherlink.com 1.10,2013-08-04 22:59:00,
2013-08-04 18:14:00,94.0,74.0,29.98,West,264,0.0,2.0,52,0.00,,,0.00,weatherlink.com 1.10,2013-08-04 23:14:00,
2013-08-04 18:29:00,93.0,73.0,29.98,WNW,293,0.0,1.0,53,0.00,,,0.00,weatherlink.com 1.10,2013-08-04 23:29:00,
2013-08-04 18:44:00,92.4,74.0,29.98,West,276,0.0,1.0,55,0.00,,,0.00,weatherlink.com 1.10,2013-08-04 23:44:00,
2013-08-04 18:59:00,92.0,74.0,29.98,West,272,0.0,1.0,55,0.00,,,0.00,weatherlink.com 1.10,2013-08-04 23:59:00,
2013-08-04 19:14:00,91.7,75.0,29.99,West,273,0.0,1.0,58,0.00,,,0.00,weatherlink.com 1.10,2013-08-05 00:14:00,
2013-08-04 19:29:00,90.7,75.0,29.99,West,273,0.0,0.0,61,0.00,,,0.00,weatherlink.com 1.10,2013-08-05 00:29:00,
2013-08-04 19:44:00,88.6,75.0,29.99,West,274,0.0,0.0,64,0.00,,,0.00,weatherlink.com 1.10,2013-08-05 00:44:00,
2013-08-04 19:59:00,87.5,76.0,30.00,West,274,0.0,1.0,69,0.00,,,0.00,weatherlink.com 1.10,2013-08-05 00:59:00,
2013-08-04 20:14:00,87.0,75.0,30.00,West,274,0.0,0.0,68,0.00,,,0.00,weatherlink.com 1.10,2013-08-05 01:14:00,
2013-08-04 20:29:00,86.4,75.0,30.00,NE,41,0.0,1.0,69,0.00,,,0.00,weatherlink.com 1.10,2013-08-05 01:29:00,
2013-08-04 20:44:00,85.5,76.0,30.01,NE,41,0.0,0.0,72,0.00,,,0.00,weatherlink.com 1.10,2013-08-05 01:44:00,
2013-08-04 20:59:00,84.8,75.0,30.02,NE,41,0.0,1.0,73,0.00,,,0.00,weatherlink.com 1.10,2013-08-05 01:59:00,
2013-08-04 21:14:00,84.2,75.0,30.02,NE,41,0.0,0.0,74,0.00,,,0.00,weatherlink.com 1.10,2013-08-05 02:14:00,
2013-08-04 21:29:00,83.7,75.0,30.02,NE,41,0.0,0.0,76,0.00,,,0.00,weatherlink.com 1.10,2013-08-05 02:29:00,
2013-08-04 21:44:00,83.0,75.0,30.03,NE,41,0.0,1.0,77,0.00,,,0.00,weatherlink.com 1.10,2013-08-05 02:44:00,
2013-08-04 21:59:00,82.6,76.0,30.03,NE,41,0.0,1.0,79,0.00,,,0.00,weatherlink.com 1.10,2013-08-05 02:59:00,
2013-08-04 22:14:00,82.4,76.0,30.04,NE,41,0.0,0.0,80,0.00,,,0.00,weatherlink.com 1.10,2013-08-05 03:14:00,
2013-08-04 22:29:00,82.0,75.0,30.04,NE,41,0.0,0.0,80,0.00,,,0.00,weatherlink.com 1.10,2013-08-05 03:29:00,
2013-08-04 22:44:00,81.7,75.0,30.05,NE,41,0.0,0.0,81,0.00,,,0.00,weatherlink.com 1.10,2013-08-05 03:44:00,
2013-08-04 22:59:00,81.3,75.0,30.04,NE,41,0.0,0.0,82,0.00,,,0.00,weatherlink.com 1.10,2013-08-05 03:59:00,
2013-08-04 23:14:00,80.8,75.0,30.05,NE,41,0.0,0.0,83,0.00,,,0.00,weatherlink.com 1.10,2013-08-05 04:14:00,
2013-08-04 23:29:00,80.5,75.0,30.04,NE,41,0.0,0.0,84,0.00,,,0.00,weatherlink.com 1.10,2013-08-05 04:29:00,
2013-08-04 23:44:00,80.2,75.0,30.04,NE,41,0.0,0.0,85,0.00,,,0.00,weatherlink.com 1.10,2013-08-05 04:44:00,
2013-08-04 23:59:00,80.0,75.0,30.04,NE,41,0.0,0.0,85,0.00,,,0.00,weatherlink.com 1.10,2013-08-05 04:59:00,